< < Back
Terminal Aerodrome Forecast


Current Version              Previous Versions:   1  2  3  4  5  6  7  8  9  

Terminal Aerodrome Forecast

794
FTUS42 KCHS 232300
TAFCHS
TAF
KCHS 232324Z 2400/2424 00000KT P6SM SCT250
     FM241500 02006KT P6SM FEW250=

Latest METAR

568
SAUS80 KWBC 241300
MTRCHS
METAR KCHS 241256Z 04005KT 10SM BKN250 13/08 A3006 RMK AO2 SLP179
T01280083


USA.gov is the U.S. government's official web portal to all federal, state and local government web resources and services.